KBURKFUL

Guest
Details From KBUR - BOB HOPE
To KFUL - Fullerton Muni
Flight Number -
Tags generated
Created
Modified
Stats Distance 27 nm / 51 km
Max Altitude 1,900 ft / 579 m
Waypoints 3
Social Downloads 0
Likes 0
Share VATSIM

Download

Looking for another format? Having issues loading an existing format? Contact us
Advertisement - Login to hide

Notes

Basic altitude profile: - Ascent Rate: 2500ft/min - Ascent Speed: 250kts - Cruise Altitude: 35000ft - Cruise Speed: 420kts - Descent Rate: 1500ft/min - Descent Speed: 250kts Options: - Use NATs: no - Use PACOTS: no - Use low airways: yes - Use high airways: no

Route

KBUR DOWNE KFUL

ID Type Via Altitude Latitude Longitude Leg Dist Tot Dist Heading (true) Name
O KBUR APT - 0 ft / 0 m 34.20048˚ -118.35877˚ - 0 nm - BOB HOPE
DOWNE FIX - 1,900 ft / 579 m 33.96430˚ -118.12373˚ 18 nm 18 nm 140° / 141° -
O KFUL APT - 0 ft / 0 m 33.87202˚ -117.97980˚ 9 nm 27 nm 128° / 128° Fullerton Muni

Altitude Profile

Advertisement - Login to hide

KBUR

Details ICAO KBUR (BUR)
Name BOB HOPE
Region United States
Timezone America/Los_Angeles (UTC-7.0)
Stats Elevation 778 ft / 237 m (AMSL)
Location 34.200475° -118.358767°
Runways 2
Magnetic Variation 12.007° E

METAR

KBUR 270453Z 14003KT 10SM CLR 16/11 A2996 RMK AO2 SLP137 T01610106

Decode

TAF

TAF KBUR 262322Z 2700/2724 18012KT P6SM BKN050 FM270400 13006KT P6SM SKC FM271000 13006KT P6SM BKN010 FM271600 VRB03KT P6SM SKC FM272000 14008KT P6SM SKC

Decode

Departure Runways

ID Width Length Bearing (true) Bearing (mag) Surface Threshold Offset Overrun Length
08 151 ft / 46 m 5,835 ft / 1,779 m 90.92° 78.91° Asphalt 0 ft / 0 m 259 ft / 79 m
15 151 ft / 46 m 6,962 ft / 2,122 m 167.12° 155.11° Asphalt 909 ft / 277 m 0 ft / 0 m
26 151 ft / 46 m 5,835 ft / 1,779 m 270.93° 258.92° Asphalt 0 ft / 0 m 253 ft / 77 m
33 151 ft / 46 m 6,962 ft / 2,122 m 347.12° 335.11° Asphalt 351 ft / 107 m 0 ft / 0 m

KFUL

Details ICAO KFUL (FUL)
Name Fullerton Muni
Region United States
Timezone America/Los_Angeles (UTC-7.0)
Stats Elevation 96 ft / 29 m (AMSL)
Location 33.872024° -117.979798°
Runways 1
Magnetic Variation 11.867° E

METAR

KFUL 270453Z AUTO 17004KT 10SM CLR 17/12 A2998 RMK AO2 SLP150 T01720122

Decode

TAF

Not found

Destination Runways

ID Width Length Bearing (true) Bearing (mag) Surface Threshold Offset Overrun Length
06 75 ft / 23 m 3,115 ft / 950 m 76.92° 65.05° Asphalt 427 ft / 130 m 0 ft / 0 m
24 75 ft / 23 m 3,115 ft / 950 m 256.92° 245.05° Asphalt 253 ft / 77 m 0 ft / 0 m

Approach Navaids

Runway Type Ident Frequency Range Bearing (true) Bearing (mag) Slope Elevation
24 Localiser IFUL 108.90 MHz 18 nm / 33 km 256.92° 245.05° - 84 ft / 26 m (AMSL)
24 DME IFUL 108.90 MHz 18 nm / 33 km - - - 96 ft / 29 m (AMSL)

Popular Alternatives